Time;durP1;ratioP1;P1;durP2;ratioP2;P2;SDS_P1;SDS_P2;PMS_P1;PMS_P2;Temp;Humidity;BMP_temperature;BMP_pressure;BME280_temperature;BME280_humidity;BME280_pressure;Samples;Min_cycle;Max_cycle;Signal;HPM_P1;HPM_P2
2022/08/28 00:00:13;;;;;;;9.55;2.60;;;;;;;14.92;81.09;101950.56;5031470;28;20496;-77
2022/08/28 00:02:38;;;;;;;6.07;2.65;;;;;;;14.82;81.33;101961.28;5031616;28;20017;-77
2022/08/28 00:05:05;;;;;;;12.20;3.65;;;;;;;14.63;82.18;101956.69;5031064;28;20029;-75
2022/08/28 00:07:31;;;;;;;12.05;3.33;;;;;;;14.63;82.36;101954.91;5032680;28;20190;-77
2022/08/28 00:09:56;;;;;;;9.32;3.15;;;;;;;14.61;81.86;101948.25;5031336;28;20078;-77
2022/08/28 00:12:22;;;;;;;10.77;3.55;;;;;;;14.67;82.39;101955.31;5032624;28;20031;-77
2022/08/28 00:14:47;;;;;;;6.00;2.72;;;;;;;14.65;82.79;101959.94;5032795;28;20018;-77
2022/08/28 00:17:12;;;;;;;13.27;3.30;;;;;;;14.66;83.00;101956.31;5036354;28;20061;-77
2022/08/28 00:19:38;;;;;;;9.85;2.58;;;;;;;14.58;83.23;101953.84;5034955;28;20033;-75
2022/08/28 00:22:03;;;;;;;8.10;2.60;;;;;;;14.53;83.58;101962.22;5036190;28;20028;-75
2022/08/28 00:24:29;;;;;;;11.13;2.65;;;;;;;14.53;83.63;101948.38;5034905;28;20041;-78
2022/08/28 00:29:38;;;;;;;15.00;2.78;;;;;;;14.52;83.30;101960.56;5036523;28;20111;-77
2022/08/28 00:32:04;;;;;;;13.77;3.00;;;;;;;14.40;83.76;101952.41;5034844;28;20437;-78
2022/08/28 00:34:31;;;;;;;12.68;2.88;;;;;;;14.36;84.23;101959.00;5034725;28;20027;-76
2022/08/28 00:36:56;;;;;;;5.80;2.90;;;;;;;14.37;83.68;101955.38;5034814;28;20528;-77
2022/08/28 00:39:22;;;;;;;10.00;2.67;;;;;;;14.22;84.12;101952.03;5034558;28;20025;-77
2022/08/28 00:41:49;;;;;;;8.93;2.85;;;;;;;14.18;84.51;101955.97;5035863;28;20032;-77
2022/08/28 00:44:18;;;;;;;11.60;2.63;;;;;;;14.01;85.40;101944.94;5036415;28;20468;-77
2022/08/28 00:46:47;;;;;;;9.93;3.28;;;;;;;14.00;85.72;101957.16;5036159;28;20439;-77
2022/08/28 00:49:15;;;;;;;14.00;2.55;;;;;;;13.86;86.31;101957.16;5034756;28;20022;-78
2022/08/28 00:54:26;;;;;;;8.25;2.97;;;;;;;13.90;86.65;101956.63;5035417;28;20107;-77
2022/08/28 00:56:53;;;;;;;10.10;2.92;;;;;;;13.86;86.50;101959.75;5035592;28;20029;-77
2022/08/28 00:59:22;;;;;;;10.10;2.78;;;;;;;13.74;87.52;101959.41;5034119;28;20030;-77
2022/08/28 01:01:52;;;;;;;9.27;2.55;;;;;;;13.79;87.29;101966.66;5035462;28;20037;-77
2022/08/28 01:04:19;;;;;;;8.85;3.00;;;;;;;13.71;87.54;101965.75;5035808;28;20025;-77
2022/08/28 01:06:51;;;;;;;9.85;2.83;;;;;;;13.76;88.00;101971.22;5034292;28;20025;-76
2022/08/28 01:09:16;;;;;;;8.82;2.90;;;;;;;13.74;88.13;101968.00;5034055;28;20093;-77
2022/08/28 01:11:44;;;;;;;13.50;3.10;;;;;;;13.71;87.38;101944.97;5035501;28;20041;-76
2022/08/28 01:14:12;;;;;;;7.75;2.67;;;;;;;13.90;87.46;101963.63;5033975;28;20025;-76
2022/08/28 01:16:40;;;;;;;11.50;2.88;;;;;;;14.00;87.07;101964.16;5035345;28;20108;-76
2022/08/28 01:19:11;;;;;;;13.45;3.22;;;;;;;13.76;87.12;101955.66;5035281;28;20385;-76
2022/08/28 01:22:00;;;;;;;9.57;2.63;;;;;;;13.64;88.01;101966.66;5035086;28;20383;-75
2022/08/28 01:24:26;;;;;;;8.50;2.85;;;;;;;13.45;88.98;101945.41;5035215;28;20102;-76
2022/08/28 01:26:52;;;;;;;11.38;2.75;;;;;;;13.47;88.78;101964.22;5033935;28;20484;-76
2022/08/28 01:29:17;;;;;;;8.23;2.80;;;;;;;13.59;89.17;101946.41;5033701;28;20025;-76
2022/08/28 01:31:42;;;;;;;9.00;2.80;;;;;;;13.71;88.54;101955.38;5034876;28;20033;-77
2022/08/28 01:34:11;;;;;;;9.98;2.58;;;;;;;13.54;88.90;101959.13;5033638;28;20025;-77
2022/08/28 01:36:37;;;;;;;7.05;2.78;;;;;;;13.69;88.81;101967.72;5034864;28;20108;-76
2022/08/28 01:39:07;;;;;;;13.88;2.95;;;;;;;13.70;88.32;101963.34;5034906;28;20072;-76
2022/08/28 01:41:34;;;;;;;12.93;2.70;;;;;;;13.72;88.61;101961.38;5033630;28;20056;-77
2022/08/28 01:43:59;;;;;;;9.25;2.88;;;;;;;13.75;87.99;101961.84;5034781;28;20400;-76
2022/08/28 01:46:24;;;;;;;6.95;2.70;;;;;;;13.78;88.46;101971.03;5033388;28;20021;-76
2022/08/28 01:48:50;;;;;;;8.32;2.80;;;;;;;13.67;87.88;101961.91;5034701;28;20029;-76
2022/08/28 01:51:16;;;;;;;8.75;3.10;;;;;;;13.58;88.58;101964.75;5033315;28;20457;-76
2022/08/28 01:53:42;;;;;;;10.90;2.75;;;;;;;13.38;89.94;101965.28;5032879;28;20057;-77
2022/08/28 01:56:14;;;;;;;6.60;2.70;;;;;;;13.29;89.77;101961.97;5033055;28;20099;-76
2022/08/28 01:58:40;;;;;;;6.65;2.55;;;;;;;13.23;90.38;101957.41;5034503;28;20052;-76
2022/08/28 02:01:14;;;;;;;8.15;3.10;;;;;;;13.39;90.34;101966.91;5034319;28;20029;-76
2022/08/28 02:03:41;;;;;;;6.60;2.88;;;;;;;13.28;89.84;101960.31;5033044;28;20488;-76
2022/08/28 02:06:07;;;;;;;11.48;2.95;;;;;;;13.20;90.82;101964.75;5034144;28;20021;-76
2022/08/28 02:08:32;;;;;;;10.07;2.75;;;;;;;13.20;90.43;101964.75;5033937;28;20110;-76
2022/08/28 02:10:58;;;;;;;7.72;2.60;;;;;;;13.16;90.88;101968.69;5034044;28;20029;-77
2022/08/28 02:13:23;;;;;;;10.02;2.83;;;;;;;13.17;90.94;101971.09;5032396;28;20034;-77
2022/08/28 02:15:49;;;;;;;9.48;2.67;;;;;;;13.24;91.19;101973.81;5033970;28;20025;-77
2022/08/28 02:18:15;;;;;;;10.60;2.75;;;;;;;13.41;90.41;101979.72;5034087;28;20036;-78
2022/08/28 02:20:41;;;;;;;9.45;2.72;;;;;;;13.35;90.21;101980.38;5032901;28;20014;-75
2022/08/28 02:23:08;;;;;;;9.27;2.53;;;;;;;13.28;90.85;101970.72;5032775;28;20080;-76
2022/08/28 02:25:34;;;;;;;8.85;2.95;;;;;;;13.18;91.26;101977.91;5032632;28;20033;-77
2022/08/28 02:27:59;;;;;;;8.50;2.70;;;;;;;13.07;91.01;101979.13;5034005;28;20370;-76
2022/08/28 02:30:25;;;;;;;8.10;2.88;;;;;;;13.05;91.38;101982.88;5033876;28;20022;-77
2022/08/28 02:32:51;;;;;;;9.02;2.70;;;;;;;13.02;91.43;101975.44;5033744;28;20092;-76
2022/08/28 02:35:18;;;;;;;12.48;3.17;;;;;;;13.08;91.38;101977.34;5033588;28;20100;-76
2022/08/28 02:37:44;;;;;;;8.65;2.83;;;;;;;12.98;91.29;101982.78;5033325;28;20091;-76
2022/08/28 02:40:13;;;;;;;10.98;3.28;;;;;;;13.02;91.77;101968.47;5032330;28;20477;-76
2022/08/28 02:42:39;;;;;;;8.18;2.80;;;;;;;13.19;91.17;101970.94;5032194;28;20025;-75
2022/08/28 02:45:07;;;;;;;7.68;3.15;;;;;;;13.09;91.38;101984.16;5033504;28;20079;-76
2022/08/28 02:47:32;;;;;;;7.95;2.78;;;;;;;13.04;91.55;101978.69;5032532;28;20044;-77
2022/08/28 02:49:58;;;;;;;7.75;2.97;;;;;;;13.01;91.55;101982.44;5032116;28;20033;-75
2022/08/28 02:52:23;;;;;;;10.70;3.00;;;;;;;13.13;92.11;101984.63;5015622;28;20036;-75
2022/08/28 02:54:49;;;;;;;8.65;2.92;;;;;;;13.17;91.14;101981.47;5033277;28;20018;-77
2022/08/28 02:57:15;;;;;;;8.30;2.90;;;;;;;13.25;91.36;101991.81;5033352;28;20029;-76
2022/08/28 02:59:40;;;;;;;7.72;2.90;;;;;;;13.28;90.35;101996.66;5033387;28;20048;-76
2022/08/28 03:02:06;;;;;;;7.80;3.05;;;;;;;13.24;91.09;101979.81;5015566;28;20125;-77
2022/08/28 03:04:36;;;;;;;8.43;2.78;;;;;;;13.34;90.71;101989.16;5032174;28;20467;-76
2022/08/28 03:07:03;;;;;;;6.82;2.78;;;;;;;13.28;90.55;101975.09;5031926;28;20059;-77
2022/08/28 03:09:29;;;;;;;8.93;2.90;;;;;;;13.09;90.59;101987.56;5033372;28;20079;-76
2022/08/28 03:11:55;;;;;;;5.65;2.70;;;;;;;13.07;91.25;101983.53;5033376;28;20037;-77
2022/08/28 03:14:21;;;;;;;9.20;2.90;;;;;;;13.21;90.33;101990.53;5033113;28;20026;-77
2022/08/28 03:16:47;;;;;;;10.68;3.30;;;;;;;13.19;90.51;101983.91;5033387;28;20077;-77
2022/08/28 03:19:12;;;;;;;11.23;3.30;;;;;;;12.94;89.85;101978.09;5031984;28;20025;-77
2022/08/28 03:21:38;;;;;;;12.80;3.00;;;;;;;12.92;91.31;101991.25;5033275;28;20089;-77
2022/08/28 03:24:04;;;;;;;9.77;3.15;;;;;;;12.95;91.71;101985.72;5032114;28;20018;-76
2022/08/28 03:26:30;;;;;;;10.63;2.80;;;;;;;12.94;92.40;101991.88;5031980;28;20028;-77
2022/08/28 03:28:56;;;;;;;8.80;3.20;;;;;;;13.09;91.97;101987.56;5033185;28;20036;-76
2022/08/28 03:31:25;;;;;;;9.27;3.00;;;;;;;12.96;92.02;101997.69;5033213;28;20096;-77
2022/08/28 03:33:51;;;;;;;10.82;2.83;;;;;;;12.80;93.39;101988.25;5033080;28;20485;-76
2022/08/28 03:36:20;;;;;;;5.97;2.60;;;;;;;12.87;92.31;101988.38;5033057;28;20084;-77
2022/08/28 03:38:46;;;;;;;7.45;2.97;;;;;;;12.92;92.89;101987.81;5031784;28;20061;-77
2022/08/28 03:41:17;;;;;;;6.30;2.63;;;;;;;13.05;92.42;101993.25;5031741;28;20060;-75
2022/08/28 03:43:43;;;;;;;8.75;2.70;;;;;;;13.10;92.13;101996.94;5032892;28;20025;-75
2022/08/28 03:46:14;;;;;;;6.75;2.85;;;;;;;13.00;91.55;101992.97;5033020;28;20036;-75
2022/08/28 03:48:40;;;;;;;7.47;2.80;;;;;;;12.93;91.87;102003.22;5032959;28;20409;-76
2022/08/28 03:51:18;;;;;;;7.60;2.75;;;;;;;12.87;92.08;101990.94;5018794;28;20132;-76
2022/08/28 03:53:43;;;;;;;11.15;3.08;;;;;;;12.78;92.63;101997.97;5036499;28;20471;-77
2022/08/28 03:56:11;;;;;;;5.75;2.63;;;;;;;12.87;92.86;101999.53;5036590;28;20030;-76
2022/08/28 03:58:38;;;;;;;8.25;3.10;;;;;;;12.99;92.41;101996.56;5035394;28;20036;-77
2022/08/28 04:01:05;;;;;;;7.68;2.65;;;;;;;12.98;91.47;102000.13;5036827;28;20140;-75
2022/08/28 04:03:31;;;;;;;8.80;2.65;;;;;;;12.98;90.91;102005.31;5035275;28;20115;-76
2022/08/28 04:05:56;;;;;;;7.53;2.70;;;;;;;12.67;91.34;102003.56;5018908;28;20027;-76
2022/08/28 04:08:22;;;;;;;7.55;2.80;;;;;;;12.61;92.46;102015.41;5036415;28;20546;-77
2022/08/28 04:10:48;;;;;;;9.88;2.75;;;;;;;12.62;92.95;102019.63;5035061;28;20113;-76
2022/08/28 04:13:15;;;;;;;6.85;2.55;;;;;;;12.62;92.70;102024.81;5034884;28;20021;-77
2022/08/28 04:15:41;;;;;;;9.02;3.20;;;;;;;12.64;92.92;102017.66;5036233;28;20025;-77
2022/08/28 04:18:07;;;;;;;7.47;2.97;;;;;;;12.60;92.31;102026.78;5034892;28;20120;-75
2022/08/28 04:20:33;;;;;;;7.72;2.83;;;;;;;12.54;93.05;102019.66;5036212;28;20033;-76
2022/08/28 04:22:58;;;;;;;7.55;2.72;;;;;;;12.64;92.09;102020.25;5036251;28;20048;-77
2022/08/28 04:25:24;;;;;;;7.22;2.92;;;;;;;12.74;92.42;102022.63;5036232;28;20469;-77
2022/08/28 04:27:50;;;;;;;4.95;2.40;;;;;;;12.80;91.78;102023.72;5036238;28;20036;-76
2022/08/28 04:30:16;;;;;;;7.93;2.85;;;;;;;12.72;92.18;102018.63;5018309;28;20025;-76
2022/08/28 04:32:41;;;;;;;6.13;2.70;;;;;;;12.65;92.39;102036.63;5034854;28;20184;-75
2022/08/28 04:35:09;;;;;;;6.90;2.70;;;;;;;12.45;92.88;102028.44;5034623;28;20018;-75
2022/08/28 04:37:35;;;;;;;7.28;2.88;;;;;;;12.64;93.24;102029.84;5035959;28;20384;-77
2022/08/28 04:40:03;;;;;;;6.30;2.50;;;;;;;12.65;92.72;102021.88;5034624;28;20044;-76
2022/08/28 04:42:28;;;;;;;8.55;3.20;;;;;;;12.62;92.55;102027.41;5034323;28;20107;-76
2022/08/28 04:44:59;;;;;;;9.02;3.10;;;;;;;12.72;92.29;102027.19;5035875;28;20013;-76
2022/08/28 04:47:26;;;;;;;7.13;2.50;;;;;;;12.55;92.21;102031.66;5034621;28;20114;-76
2022/08/28 04:49:52;;;;;;;7.40;2.70;;;;;;;12.56;92.40;102027.28;5035925;28;20029;-76
2022/08/28 04:52:17;;;;;;;7.50;2.55;;;;;;;12.65;91.98;102031.44;5034592;28;20485;-76
2022/08/28 04:54:42;;;;;;;6.65;2.60;;;;;;;12.46;91.58;102034.44;5035425;28;20034;-76
2022/08/28 04:57:08;;;;;;;7.22;2.50;;;;;;;12.52;91.93;102038.97;5034380;28;20041;-76
2022/08/28 04:59:33;;;;;;;6.70;2.67;;;;;;;12.63;91.60;102036.81;5034712;28;20120;-77
2022/08/28 05:01:59;;;;;;;6.30;2.70;;;;;;;12.67;91.26;102046.84;5033914;28;20025;-76
2022/08/28 05:04:25;;;;;;;9.30;3.03;;;;;;;12.74;91.15;102045.16;5035191;28;20025;-76
2022/08/28 05:06:51;;;;;;;7.70;2.70;;;;;;;12.61;90.55;102045.72;5035576;28;20048;-76
2022/08/28 05:09:18;;;;;;;7.35;2.47;;;;;;;12.65;91.70;102052.19;5033969;28;20029;-76
2022/08/28 05:11:45;;;;;;;8.10;2.70;;;;;;;12.81;90.97;102057.31;5034160;28;20167;-78
2022/08/28 05:14:11;;;;;;;8.30;2.65;;;;;;;13.00;90.72;102053.44;5035042;28;20473;-76
2022/08/28 05:16:47;;;;;;;10.38;2.85;;;;;;;12.74;90.81;102034.78;5033909;28;20025;-75
2022/08/28 05:19:15;;;;;;;7.18;2.80;;;;;;;12.90;90.75;102057.25;5033754;28;20033;-76
2022/08/28 05:21:41;;;;;;;9.73;2.70;;;;;;;13.19;89.46;102056.59;5033804;28;20017;-75
2022/08/28 05:24:07;;;;;;;4.63;2.28;;;;;;;13.31;88.35;102056.03;5033840;28;20056;-77
2022/08/28 05:26:34;;;;;;;7.75;2.40;;;;;;;13.43;88.10;102053.81;5033860;28;20021;-76
2022/08/28 05:29:00;;;;;;;10.07;2.72;;;;;;;13.51;87.08;102060.75;5035131;28;20039;-76
2022/08/28 05:31:27;;;;;;;6.30;2.72;;;;;;;13.65;87.75;102054.78;5035137;28;20025;-76
2022/08/28 05:33:53;;;;;;;7.05;3.05;;;;;;;13.66;87.84;102068.59;5033699;28;20025;-76
2022/08/28 05:36:21;;;;;;;6.30;2.50;;;;;;;13.75;87.49;102062.31;5034844;28;20049;-77
2022/08/28 05:38:47;;;;;;;9.25;3.00;;;;;;;13.84;87.13;102061.28;5017220;28;20469;-77
2022/08/28 05:41:29;;;;;;;5.75;2.60;;;;;;;14.02;85.98;102066.13;5033447;28;20053;-76
2022/08/28 05:43:56;;;;;;;8.93;2.60;;;;;;;14.16;85.03;102061.94;5034659;28;20096;-76
2022/08/28 05:46:22;;;;;;;8.10;2.80;;;;;;;14.20;86.01;102066.59;5034747;28;20032;-77
2022/08/28 05:48:48;;;;;;;7.53;2.72;;;;;;;14.29;86.00;102066.50;5033334;28;20021;-77
2022/08/28 05:51:17;;;;;;;7.35;2.78;;;;;;;14.37;86.46;102069.00;5033436;28;20033;-77
2022/08/28 05:53:43;;;;;;;10.80;3.17;;;;;;;14.40;86.24;102068.66;5033113;28;20052;-77
2022/08/28 05:56:20;;;;;;;5.80;2.75;;;;;;;14.74;85.65;102068.09;5033118;28;20028;-78
2022/08/28 05:58:46;;;;;;;5.72;2.40;;;;;;;15.02;84.75;102067.41;5033162;28;20028;-76
2022/08/28 06:01:27;;;;;;;9.13;2.70;;;;;;;15.32;83.90;102066.28;5033070;28;20400;-77
2022/08/28 06:04:07;;;;;;;9.20;2.80;;;;;;;15.85;81.84;102067.72;5033091;28;20484;-77
2022/08/28 06:06:34;;;;;;;6.03;2.70;;;;;;;16.78;78.73;102071.63;5034439;28;20025;-78
2022/08/28 06:09:05;;;;;;;9.95;2.70;;;;;;;16.62;79.17;102058.88;5032971;28;20061;-77
2022/08/28 06:11:31;;;;;;;9.10;2.20;;;;;;;16.67;78.56;102061.72;5033927;28;20224;-77
2022/08/28 06:13:59;;;;;;;10.38;3.10;;;;;;;16.54;79.63;102065.06;5033770;28;20017;-77
2022/08/28 06:16:25;;;;;;;8.25;2.60;;;;;;;16.49;81.08;102072.69;5032733;28;20030;-78
2022/08/28 06:18:50;;;;;;;9.85;2.90;;;;;;;17.69;77.77;102071.06;5032739;28;20031;-76
2022/08/28 06:21:15;;;;;;;9.13;2.38;;;;;;;17.77;74.49;102073.50;5034060;28;20477;-76
2022/08/28 06:23:41;;;;;;;8.43;2.30;;;;;;;17.62;75.33;102066.88;5033927;28;20120;-75
2022/08/28 06:26:06;;;;;;;8.07;2.60;;;;;;;17.19;76.65;102085.56;5032681;28;20025;-76
2022/08/28 06:28:32;;;;;;;11.32;2.38;;;;;;;17.93;73.58;102077.53;5033848;28;20397;-77
2022/08/28 06:31:01;;;;;;;5.45;2.20;;;;;;;17.44;75.11;102077.94;5032407;28;20427;-76
2022/08/28 06:33:26;;;;;;;7.68;2.33;;;;;;;23.14;57.76;102082.97;5033670;28;20030;-76
2022/08/28 06:35:54;;;;;;;9.00;2.40;;;;;;;26.44;45.36;102074.13;5032191;28;20022;-75
2022/08/28 06:38:23;;;;;;;10.10;2.67;;;;;;;27.63;43.12;102079.13;5032376;28;20032;-76
2022/08/28 06:40:51;;;;;;;9.07;2.55;;;;;;;28.51;39.81;102076.88;5032422;28;20022;-76
2022/08/28 06:43:20;;;;;;;9.60;2.30;;;;;;;28.80;38.40;102079.59;5032348;28;20032;-76
2022/08/28 06:45:47;;;;;;;5.97;2.00;;;;;;;26.87;42.52;102081.84;5033507;28;20056;-76
2022/08/28 06:48:16;;;;;;;5.60;1.90;;;;;;;29.09;38.33;102063.66;5033763;28;20068;-77
2022/08/28 06:50:44;;;;;;;6.63;1.95;;;;;;;24.56;46.44;102076.38;5032317;28;20030;-77
2022/08/28 06:53:12;;;;;;;5.28;1.75;;;;;;;28.39;40.54;102073.75;5031971;28;20061;-77
2022/08/28 06:55:37;;;;;;;7.85;2.40;;;;;;;30.16;36.25;102079.47;5032154;28;20040;-77
2022/08/28 06:58:05;;;;;;;6.35;2.20;;;;;;;22.79;51.07;102085.78;5032250;28;20033;-78
2022/08/28 07:00:31;;;;;;;7.00;2.20;;;;;;;22.55;54.81;102079.81;5032256;28;20036;-77
2022/08/28 07:02:58;;;;;;;6.65;1.90;;;;;;;26.63;42.27;102074.41;5033898;28;20021;-78
2022/08/28 07:05:23;;;;;;;8.02;2.10;;;;;;;23.30;50.66;102080.56;5032459;28;20024;-77
2022/08/28 07:07:48;;;;;;;7.82;2.17;;;;;;;23.63;50.95;102085.81;5032202;28;20025;-77
2022/08/28 07:10:14;;;;;;;8.80;2.10;;;;;;;27.32;41.38;102088.22;5033423;28;20033;-79
2022/08/28 07:12:39;;;;;;;6.05;2.00;;;;;;;28.76;38.52;102089.19;5032127;28;20386;-77
2022/08/28 07:15:05;;;;;;;8.55;2.00;;;;;;;30.02;36.35;102090.84;5031892;28;20064;-77
2022/08/28 07:17:32;;;;;;;9.10;2.50;;;;;;;30.31;35.45;102089.94;5033311;28;20028;-77
2022/08/28 07:19:58;;;;;;;10.77;2.22;;;;;;;30.46;34.79;102089.72;5032106;28;20082;-77
2022/08/28 07:22:25;;;;;;;10.30;2.10;;;;;;;23.21;50.14;102095.97;5033311;28;20104;-77
2022/08/28 07:24:51;;;;;;;9.63;2.25;;;;;;;27.23;41.55;102104.69;5036571;28;20022;-77
2022/08/28 07:27:17;;;;;;;6.22;2.00;;;;;;;29.66;36.13;102099.31;5037279;28;20029;-76
2022/08/28 07:29:42;;;;;;;7.05;2.15;;;;;;;29.71;36.82;102097.63;5036078;28;20036;-77
2022/08/28 07:32:08;;;;;;;5.45;1.90;;;;;;;29.90;35.85;102095.81;5037091;28;20021;-78
2022/08/28 07:34:38;;;;;;;9.52;2.00;;;;;;;30.71;34.00;102096.53;5035689;28;20032;-77
2022/08/28 07:37:05;;;;;;;7.93;2.00;;;;;;;30.55;34.35;102092.50;5037015;28;20029;-77
2022/08/28 07:39:31;;;;;;;7.18;1.80;;;;;;;29.43;35.68;102098.19;5035742;28;20043;-79
2022/08/28 07:41:56;;;;;;;7.78;2.00;;;;;;;29.85;35.94;102096.66;5037135;28;20025;-76
2022/08/28 07:47:06;;;;;;;10.25;2.13;;;;;;;23.11;47.81;102096.63;5037028;28;20428;-77
2022/08/28 07:49:33;;;;;;;7.60;1.77;;;;;;;21.61;53.33;102099.19;5037012;28;20035;-78
2022/08/28 07:51:59;;;;;;;9.73;2.50;;;;;;;20.89;55.25;102103.75;5036974;28;20400;-77
2022/08/28 07:54:24;;;;;;;5.60;2.00;;;;;;;22.01;53.29;102106.38;5035166;28;20042;-77
2022/08/28 07:56:51;;;;;;;8.00;2.20;;;;;;;25.87;43.85;102101.47;5035646;28;20477;-78
2022/08/28 07:59:17;;;;;;;9.85;1.80;;;;;;;22.74;49.89;102109.41;5037220;28;20025;-78
2022/08/28 08:01:45;;;;;;;8.07;1.90;;;;;;;21.59;53.10;102109.13;5036508;28;20025;-77
2022/08/28 08:04:12;;;;;;;11.07;2.30;;;;;;;20.58;55.19;102108.16;5035170;28;20021;-77
2022/08/28 08:06:39;;;;;;;9.50;1.98;;;;;;;22.04;50.14;102105.13;5035330;28;20052;-78
2022/08/28 08:09:06;;;;;;;7.55;1.73;;;;;;;20.70;54.13;102122.16;5035210;28;20540;-77
2022/08/28 08:11:32;;;;;;;6.63;2.20;;;;;;;24.59;45.63;102110.25;5018752;28;20040;-76
2022/08/28 08:14:02;;;;;;;6.47;1.70;;;;;;;25.09;42.84;102115.22;5036311;28;20033;-77
2022/08/28 08:16:29;;;;;;;7.50;2.00;;;;;;;25.70;41.96;102120.16;5036440;28;20388;-78
2022/08/28 08:18:55;;;;;;;8.15;2.05;;;;;;;25.44;42.45;102119.19;5036510;28;20388;-78
2022/08/28 08:21:22;;;;;;;6.88;1.75;;;;;;;23.71;45.44;102121.56;5035045;28;20025;-77
2022/08/28 08:23:48;;;;;;;4.15;1.95;;;;;;;23.20;46.37;102124.19;5035162;28;20025;-78
2022/08/28 08:26:21;;;;;;;5.90;1.60;;;;;;;21.11;51.06;102125.84;5034779;28;20036;-78
2022/08/28 08:28:46;;;;;;;;;;;;;;;25.90;41.90;102132.75;5036861;28;20036;-77
2022/08/28 08:31:27;;;;;;;4.82;1.85;;;;;;;26.95;38.84;102129.06;5034858;28;19913;-77
2022/08/28 08:33:55;;;;;;;7.50;2.08;;;;;;;25.44;41.90;102133.22;5035937;28;20025;-78
2022/08/28 08:36:24;;;;;;;7.38;1.80;;;;;;;26.72;39.78;102125.88;5035389;28;20033;-78
2022/08/28 08:38:50;;;;;;;4.13;1.73;;;;;;;25.47;41.37;102129.28;5035086;28;20370;-78
2022/08/28 08:41:22;;;;;;;8.02;1.95;;;;;;;25.48;41.40;102120.28;5034944;28;20104;-77
2022/08/28 08:43:56;;;;;;;6.75;1.80;;;;;;;25.80;41.30;102125.50;5035870;28;20542;-77
2022/08/28 08:46:30;;;;;;;6.22;1.80;;;;;;;24.83;43.18;102121.31;5036018;28;20063;-78
2022/08/28 08:49:01;;;;;;;4.85;1.70;;;;;;;23.95;42.51;102119.50;5034654;28;20032;-77
2022/08/28 08:51:41;;;;;;;7.13;1.50;;;;;;;24.67;42.66;102115.09;5036037;28;20025;-77
2022/08/28 08:54:12;;;;;;;4.03;1.45;;;;;;;23.56;44.52;102126.59;5034283;28;20045;-77
2022/08/28 08:56:40;;;;;;;4.55;1.58;;;;;;;24.30;44.29;102113.06;5034991;28;20083;-78
2022/08/28 08:59:11;;;;;;;6.53;1.85;;;;;;;24.53;44.62;102107.53;5034627;28;20037;-77
2022/08/28 09:01:54;;;;;;;4.25;1.55;;;;;;;24.75;42.61;102117.28;5035636;28;20419;-78
2022/08/28 09:04:45;;;;;;;6.15;2.10;;;;;;;25.51;42.51;102124.25;5034483;28;20030;-77
2022/08/28 09:07:19;;;;;;;4.75;1.65;;;;;;;26.47;40.45;102112.53;5032534;28;20037;-77
2022/08/28 09:09:51;;;;;;;8.90;1.80;;;;;;;26.49;40.41;102113.88;5034046;28;20029;-77
2022/08/28 09:12:25;;;;;;;5.28;1.70;;;;;;;26.69;39.11;102112.34;5035413;28;20026;-78
2022/08/28 09:15:04;;;;;;;3.60;1.38;;;;;;;24.72;40.94;102121.22;5018396;28;20021;-77
2022/08/28 09:17:40;;;;;;;6.57;1.90;;;;;;;24.66;41.36;102113.50;5034745;28;20082;-78
2022/08/28 09:20:08;;;;;;;5.47;1.60;;;;;;;25.17;41.75;102125.34;5033974;28;20087;-79
2022/08/28 09:22:34;;;;;;;5.40;1.55;;;;;;;26.27;39.86;102108.78;5035253;28;20492;-78
2022/08/28 09:25:00;;;;;;;3.55;1.60;;;;;;;25.00;41.62;102127.28;5033849;28;20021;-78
2022/08/28 09:27:30;;;;;;;6.63;1.70;;;;;;;25.24;41.32;102125.16;5035405;28;20024;-78
2022/08/28 09:30:02;;;;;;;6.85;1.63;;;;;;;25.64;40.28;102137.84;5033756;28;20021;-78
2022/08/28 09:32:43;;;;;;;6.40;1.67;;;;;;;25.50;40.12;102120.03;5033811;28;20435;-78
2022/08/28 09:35:27;;;;;;;5.13;1.70;;;;;;;24.15;43.05;102139.31;5034813;28;20026;-78
2022/08/28 09:37:53;;;;;;;5.10;1.95;;;;;;;23.40;44.98;102136.91;5033615;28;20033;-78
2022/08/28 09:40:23;;;;;;;5.18;1.70;;;;;;;22.20;46.65;102141.28;5033766;28;20025;-78
2022/08/28 09:43:25;;;;;;;4.38;1.80;;;;;;;24.02;42.58;102143.88;5034860;28;20094;-77
2022/08/28 09:45:55;;;;;;;5.05;1.63;;;;;;;23.79;43.89;102134.34;5035159;28;20017;-78
2022/08/28 09:48:28;;;;;;;4.97;1.63;;;;;;;24.20;43.02;102126.19;5032960;28;20025;-77
2022/08/28 09:51:02;;;;;;;3.97;1.65;;;;;;;24.17;44.42;102135.38;5034101;28;20373;-77
2022/08/28 09:53:30;;;;;;;6.15;1.80;;;;;;;24.55;43.17;102133.72;5033188;28;20048;-77
2022/08/28 09:56:12;;;;;;;4.88;1.75;;;;;;;25.64;41.43;102137.84;5033322;28;20017;-77
2022/08/28 09:58:41;;;;;;;7.75;1.73;;;;;;;25.51;40.94;102130.34;5034649;28;20457;-78
2022/08/28 10:01:27;;;;;;;6.40;1.90;;;;;;;26.34;39.52;102141.13;5033295;28;20028;-76
2022/08/28 10:04:14;;;;;;;6.15;1.50;;;;;;;24.36;43.58;102129.78;5033190;28;20040;-76
2022/08/28 10:06:43;;;;;;;4.35;1.58;;;;;;;22.98;45.62;102129.34;5033346;28;20044;-76
2022/08/28 10:10:13;;;;;;;4.22;1.63;;;;;;;22.96;45.84;102125.38;5032783;28;20030;-72
2022/08/28 10:13:14;;;;;;;8.10;1.80;;;;;;;22.86;46.11;102131.22;4955915;28;20410;-72
2022/08/28 10:15:40;;;;;;;7.82;1.90;;;;;;;24.95;42.16;102124.63;4972771;28;20442;-71
2022/08/28 10:18:27;;;;;;;7.57;1.60;;;;;;;25.76;40.01;102121.78;5022684;28;20044;-72
2022/08/28 10:21:01;;;;;;;7.50;1.52;;;;;;;26.41;38.56;102119.66;5033757;28;20057;-71
2022/08/28 10:23:35;;;;;;;4.07;1.55;;;;;;;24.44;41.01;102127.53;5032450;28;20021;-72
2022/08/28 10:26:03;;;;;;;7.82;1.70;;;;;;;25.02;41.17;102132.34;5033971;28;20025;-72
2022/08/28 10:28:44;;;;;;;6.50;1.70;;;;;;;25.40;40.31;102128.69;5031751;28;20029;-71
2022/08/28 10:31:18;;;;;;;5.60;1.60;;;;;;;25.49;39.23;102136.94;5033527;28;20071;-71
2022/08/28 10:33:57;;;;;;;5.03;1.90;;;;;;;26.37;38.05;102128.41;5033689;28;20105;-71
2022/08/28 10:36:28;;;;;;;6.40;1.70;;;;;;;25.29;39.65;102141.06;5032077;28;20029;-72
2022/08/28 10:39:18;;;;;;;3.88;1.58;;;;;;;24.93;39.74;102132.00;5033544;28;20056;-71
2022/08/28 10:41:49;;;;;;;5.45;1.85;;;;;;;26.13;38.18;102133.38;5033587;28;20477;-72
2022/08/28 10:44:33;;;;;;;7.97;1.80;;;;;;;25.02;40.39;102137.63;5033559;28;20031;-71
2022/08/28 10:47:00;;;;;;;7.05;1.75;;;;;;;24.84;41.34;102139.56;5032254;28;20481;-71
2022/08/28 10:49:38;;;;;;;3.65;1.52;;;;;;;25.32;39.58;102134.44;5033250;28;20031;-70
2022/08/28 10:52:09;;;;;;;5.28;1.65;;;;;;;25.83;38.70;102132.94;5032207;28;20499;-72
2022/08/28 10:54:41;;;;;;;5.40;1.65;;;;;;;24.07;40.50;102143.97;5031838;28;20044;-71
2022/08/28 10:57:25;;;;;;;;;;;;;;;24.37;41.19;102134.81;5033986;28;20388;-70
2022/08/28 10:59:52;;;;;;;6.07;1.73;;;;;;;25.29;39.63;102132.31;5031969;28;20002;-71
2022/08/28 11:02:21;;;;;;;4.70;2.00;;;;;;;25.93;38.55;102126.94;5032514;28;20526;-70
2022/08/28 11:04:47;;;;;;;3.20;1.30;;;;;;;25.03;40.60;102137.38;5033866;28;20037;-70
2022/08/28 11:07:24;;;;;;;2.92;1.40;;;;;;;25.56;41.01;102130.38;5032538;28;20087;-71
2022/08/28 11:09:50;;;;;;;4.18;1.40;;;;;;;26.39;37.97;102121.81;5016329;28;20125;-72
2022/08/28 11:12:15;;;;;;;5.07;1.60;;;;;;;25.23;40.79;102123.53;5032745;28;20045;-71
2022/08/28 11:14:44;;;;;;;5.03;1.73;;;;;;;24.46;42.91;102133.38;5032726;28;20064;-72
2022/08/28 11:17:37;;;;;;;4.07;1.70;;;;;;;24.89;41.54;102149.41;5033751;28;20492;-72
2022/08/28 11:20:21;;;;;;;4.85;1.70;;;;;;;24.75;41.25;102130.50;5034143;28;20022;-72
2022/08/28 11:23:13;;;;;;;5.95;1.70;;;;;;;25.20;40.16;102131.97;5034293;28;20120;-71
2022/08/28 11:25:48;;;;;;;5.38;2.25;;;;;;;26.28;38.74;102131.56;5034523;28;20469;-74
2022/08/28 11:28:21;;;;;;;7.50;1.80;;;;;;;26.39;39.09;102132.41;5042857;28;20049;-77
2022/08/28 11:30:48;;;;;;;;;;;;;;;25.96;39.78;102139.66;5043070;28;20036;-76
2022/08/28 11:33:49;;;;;;;6.95;1.65;;;;;;;25.12;41.88;102138.50;5044716;28;19913;-75
2022/08/28 11:36:20;;;;;;;4.95;1.58;;;;;;;24.59;42.14;102137.47;5043692;28;20022;-76
2022/08/28 11:38:54;;;;;;;4.07;1.58;;;;;;;25.33;41.10;102144.00;5045227;28;20175;-76
2022/08/28 11:41:23;;;;;;;6.10;1.63;;;;;;;24.47;42.09;102136.81;5046621;28;20112;-75